x

Dunkirk, Ny (dbln6) Weather Station

7:00pm - Wed 22nd Oct 2014 All times are CDT. -5 hours from GMT.

  • Wind
    6mph, 7mph gusts
  • Air Temp 48°f
  • Sea Pressure 1023.5mb
  • Dunkirk, Ny
  • Dunkirk, Ny

More Historic Weather Station data

Upgrade to MSW Pro to gain access to the past 30 days of data for over 8000 Wavebouys and Weather Stations around the globe.

Join Pro

Comparision Forecast

View Surf forecast
   
Wed 10/22 7:00pm 6 7 mph 1023.5mb 48f
6:00pm 17 20 mph 1023.4mb 49f
5:00pm 15 17 mph 1023.3mb 49f
4:00pm 18 21 mph 1023.1mb 48f
3:00pm 17 20 mph 1023.4mb 48f
2:00pm 15 17 mph 1023.3mb 47f
1:00pm 15 17 mph 1023.5mb 48f
12:00pm 17 20 mph 1023.2mb 48f
11:00am 17 22 mph 1023.8mb 47f
10:00am 18 21 mph 1023.5mb 47f
9:00am 18 28 mph 1023.3mb 47f
8:00am 20 23 mph 1022.6mb 47f
7:00am 22 25 mph 1022mb 47f
6:00am 22 24 mph 1021.4mb 47f
5:00am 25 29 mph 1020.5mb 47f
4:00am 25 34 mph 1019.8mb 47f
3:00am 23 29 mph 1019.4mb 47f
2:00am 23 28 mph 1019.2mb 47f
1:00am 22 24 mph 1019mb 47f
12:00am 24 28 mph 1018.6mb 47f
Tue 10/21 11:00pm 23 26 mph 1018.6mb 48f
10:00pm 28 31 mph 1017.9mb 49f
9:00pm 26 32 mph 1017.4mb 49f
8:00pm 25 29 mph 1016.4mb 49f
7:00pm 23 26 mph 1015.6mb 49f
6:00pm 26 29 mph 1014.5mb 50f
5:00pm 24 29 mph 1013.6mb 50f
4:00pm 22 26 mph 1013mb 51f
3:00pm 6 10 mph 1012.7mb 52f
2:00pm 3 6 mph 1012.3mb 53f
1:00pm 8 9 mph 1012mb 53f
12:00pm 6 7 mph 1011.8mb 53f
11:00am 9 10 mph 1011.6mb 53f
10:00am 10 14 mph 1011.2mb 53f
9:00am 8 10 mph 1011mb 53f
8:00am 6 9 mph 1010.7mb 53f
7:00am 11 15 mph 1010.1mb 53f
6:00am 13 15 mph 1009.4mb 53f
5:00am 13 15 mph 1009.1mb 54f
4:00am 9 11 mph 1009mb 54f
3:00am 11 15 mph 1008.7mb 54f
2:00am 17 18 mph 1008.4mb 54f
1:00am 5 9 mph 1008.8mb 51f
12:00am 5 7 mph 1009.2mb 51f
Mon 10/20 11:00pm 6 11 mph 1009.5mb 51f
10:00pm 6 10 mph 1009.8mb 52f
9:00pm 6 7 mph 1010.1mb 53f
8:00pm 7 13 mph 1010.3mb 52f
7:00pm 7 10 mph 1010.2mb 52f
6:00pm 7 10 mph 1010.1mb 53f
5:00pm 6 10 mph 1009.7mb 55f
4:00pm 7 11 mph 1009.5mb 57f
3:00pm 7 15 mph 1009.8mb 57f
2:00pm 13 15 mph 1010.1mb 56f
1:00pm 15 17 mph 1010.4mb 56f
12:00pm 9 11 mph 1011.5mb 54f
11:00am 8 11 mph 1012.2mb 52f
10:00am 7 11 mph 1013mb 51f
9:00am 7 9 mph 1013.3mb 49f
8:00am 7 9 mph 1013.5mb 49f
7:00am 6 10 mph 1013.7mb 47f
6:00am 8 13 mph 1013.9mb 45f
5:00am 7 10 mph 1014.3mb 46f
4:00am 6 8 mph 1015.1mb 46f
3:00am 6 9 mph 1015.5mb 47f
2:00am 8 13 mph 1016mb 47f
1:00am 6 10 mph 1016.2mb 46f
12:00am 9 13 mph 1016.4mb 45f
Sun 10/19 11:00pm 7 10 mph 1016.6mb 44f
10:00pm 8 10 mph 1017mb 44f
9:00pm 6 9 mph 1017.4mb 45f
8:00pm 7 9 mph 1018mb 45f
7:00pm 7 11 mph 1018.4mb 46f
6:00pm 18 23 mph 1018.1mb 49f
5:00pm 17 22 mph 1018.5mb 48f
4:00pm 20 23 mph 1018.8mb 47f
3:00pm 18 22 mph 1019.2mb 47f
2:00pm 15 20 mph 1019.9mb 44f
1:00pm 13 15 mph 1020.4mb 44f
12:00pm 13 15 mph 1020.7mb 43f
11:00am 10 16 mph 1021mb 42f
10:00am 10 13 mph 1020.9mb 42f
9:00am 9 14 mph 1021mb 41f
8:00am 10 15 mph 1020.4mb 42f
7:00am 14 18 mph 1019.7mb 42f
6:00am 14 17 mph 1019.3mb 42f
5:00am 16 18 mph 1018.3mb 43f
4:00am 21 25 mph 1017.4mb 43f
3:00am 16 20 mph 1016.8mb 43f
2:00am 24 28 mph 1016.2mb 42f